< < Back
Terminal Aerodrome Forecast


Current Version              Previous Versions:   1  2  3  4  5  6  7  8  9  

Terminal Aerodrome Forecast

107
FTUS42 KFFC 222320
TAFCSG
TAF
KCSG 222320Z 2300/2324 34006KT P6SM SCT050 SCT250
     FM230200 03003KT P6SM SCT100 BKN250
     FM231200 10005KT P6SM SCT040 SCT120 BKN250 PROB30 2320/2324 5SM
      TSRA BKN050CB=

Latest METAR

234
SAUS70 KWBC 240400
MTRCSG
METAR KCSG 240351Z AUTO 10004KT 10SM CLR 24/23 A3021 RMK AO2 SLP222
T02390233


USA.gov is the U.S. government's official web portal to all federal, state and local government web resources and services.